createdAt,value
2019-03-29T00:02:22.930Z,103008.36
2019-03-29T00:04:51.367Z,103013.12
2019-03-29T00:07:19.858Z,103002.58
2019-03-29T00:09:48.317Z,102994.39
2019-03-29T00:12:16.758Z,103002.67
2019-03-29T00:14:45.214Z,103002.95
2019-03-29T00:17:13.700Z,103001.31
2019-03-29T00:19:42.145Z,103001.03
2019-03-29T00:22:10.601Z,102995.41
2019-03-29T00:24:39.059Z,103003.29
2019-03-29T00:27:07.507Z,103002.67
2019-03-29T00:29:35.977Z,102996.39
2019-03-29T00:32:05.329Z,102998.16
2019-03-29T00:34:34.492Z,102993.71
2019-03-29T00:37:02.939Z,102993.80
2019-03-29T00:39:31.376Z,102992.29
2019-03-29T00:41:59.821Z,102992.47
2019-03-29T00:44:28.276Z,102990.31
2019-03-29T00:46:56.720Z,102988.52
2019-03-29T00:49:25.218Z,102986.14
2019-03-29T00:51:53.678Z,102986.35
2019-03-29T00:54:22.123Z,102982.30
2019-03-29T00:56:50.583Z,102985.40
2019-03-29T00:59:19.023Z,102975.41
2019-03-29T01:01:47.489Z,102979.50
2019-03-29T01:04:15.933Z,102972.67
2019-03-29T01:06:44.389Z,102971.30
2019-03-29T01:09:12.830Z,102957.12
2019-03-29T01:11:41.298Z,102963.52
2019-03-29T01:14:09.738Z,102959.22
2019-03-29T01:16:38.198Z,102959.90
2019-03-29T01:19:06.656Z,102957.36
2019-03-29T01:21:35.115Z,102954.36
2019-03-29T01:24:03.591Z,102955.33
2019-03-29T01:26:32.025Z,102954.58
2019-03-29T01:29:00.472Z,102949.30
2019-03-29T01:31:28.932Z,102957.30
2019-03-29T01:33:57.403Z,102954.43
2019-03-29T01:36:25.845Z,102954.82
2019-03-29T01:38:54.285Z,102951.48
2019-03-29T01:41:22.800Z,102952.80
2019-03-29T01:43:51.249Z,102951.55
2019-03-29T01:46:19.693Z,102947.88
2019-03-29T01:48:48.286Z,102944.27
2019-03-29T01:51:17.505Z,102946.80
2019-03-29T01:53:45.951Z,102952.95
2019-03-29T01:56:14.956Z,102950.81
2019-03-29T01:58:43.350Z,102950.08
2019-03-29T02:01:11.791Z,102947.27
2019-03-29T02:03:40.252Z,102940.77
2019-03-29T02:06:08.688Z,102944.39
2019-03-29T02:08:37.899Z,102945.22
2019-03-29T02:11:06.690Z,102934.08
2019-03-29T02:13:35.275Z,102934.08
2019-03-29T02:16:03.952Z,102940.43
2019-03-29T02:18:32.666Z,102943.30
2019-03-29T02:21:01.116Z,102939.59
2019-03-29T02:23:30.223Z,102943.92
2019-03-29T02:25:59.302Z,102942.69
2019-03-29T02:28:27.742Z,102934.71
2019-03-29T02:30:56.216Z,102934.22
2019-03-29T02:33:24.764Z,102927.33
2019-03-29T02:35:53.211Z,102927.33
2019-03-29T02:38:23.611Z,102930.18
2019-03-29T02:40:51.851Z,102930.18
2019-03-29T02:43:20.289Z,102929.09
2019-03-29T02:45:48.771Z,102927.11
2019-03-29T02:48:17.461Z,102936.48
2019-03-29T02:50:45.970Z,102936.01
2019-03-29T02:53:14.420Z,102926.43
2019-03-29T02:55:42.909Z,102932.19
2019-03-29T02:58:11.368Z,102935.30
2019-03-29T03:00:39.849Z,102934.67
2019-03-29T03:03:08.337Z,102934.71
2019-03-29T03:05:36.753Z,102932.25
2019-03-29T03:08:05.197Z,102928.08
2019-03-29T03:10:33.697Z,102928.08
2019-03-29T03:13:02.124Z,102931.97
2019-03-29T03:15:30.584Z,102931.97
2019-03-29T03:17:59.055Z,102928.97
2019-03-29T03:20:27.517Z,102928.69
2019-03-29T03:22:56.017Z,102926.91
2019-03-29T03:25:24.509Z,102927.61
2019-03-29T03:27:52.997Z,102928.34
2019-03-29T03:30:21.714Z,102929.31
2019-03-29T03:32:50.182Z,102933.20
2019-03-29T03:35:18.705Z,102936.19
2019-03-29T03:37:47.156Z,102933.09
2019-03-29T03:40:15.952Z,102935.23
2019-03-29T03:42:44.427Z,102932.58
2019-03-29T03:45:13.351Z,102935.17
2019-03-29T03:47:41.829Z,102935.17
2019-03-29T03:50:13.322Z,102930.94
2019-03-29T03:52:41.951Z,102939.34
2019-03-29T03:55:10.411Z,102938.52
2019-03-29T03:57:39.159Z,102942.13
2019-03-29T04:00:08.986Z,102945.91
2019-03-29T04:02:37.414Z,102945.50
2019-03-29T04:05:07.249Z,102945.43
2019-03-29T04:07:35.667Z,102943.64
2019-03-29T04:10:06.615Z,102948.09
2019-03-29T04:12:35.078Z,102942.28
2019-03-29T04:15:03.913Z,102942.22
2019-03-29T04:17:32.390Z,102941.33
2019-03-29T04:20:00.892Z,102949.91
2019-03-29T04:22:29.375Z,102950.40
2019-03-29T04:24:57.804Z,102954.64
2019-03-29T04:27:26.279Z,102947.08
2019-03-29T04:29:54.733Z,102946.98
2019-03-29T04:32:23.170Z,102948.16
2019-03-29T04:34:51.629Z,102946.73
2019-03-29T04:37:20.096Z,102948.61
2019-03-29T04:40:05.763Z,102944.60
2019-03-29T04:42:18.745Z,102942.28
2019-03-29T04:44:47.178Z,102937.98
2019-03-29T04:47:15.665Z,102937.30
2019-03-29T04:49:44.124Z,102945.16
2019-03-29T04:52:12.674Z,102948.63
2019-03-29T04:54:41.129Z,102941.11
2019-03-29T04:57:09.599Z,102934.90
2019-03-29T04:59:38.093Z,102934.78
2019-03-29T05:02:06.545Z,102936.60
2019-03-29T05:04:35.023Z,102936.88
2019-03-29T05:07:03.484Z,102934.50
2019-03-29T05:09:31.947Z,102943.23
2019-03-29T05:12:00.783Z,102940.48
2019-03-29T05:14:29.882Z,102938.50
2019-03-29T05:16:58.341Z,102943.43
2019-03-29T05:19:26.789Z,102935.23
2019-03-29T05:21:55.268Z,102943.92
2019-03-29T05:24:23.765Z,102943.41
2019-03-29T05:26:52.237Z,102934.33
2019-03-29T05:29:20.713Z,102932.78
2019-03-29T05:31:49.189Z,102937.95
2019-03-29T05:34:17.644Z,102947.12
2019-03-29T05:36:46.118Z,102945.43
2019-03-29T05:39:14.587Z,102946.78
2019-03-29T05:41:43.037Z,102948.92
2019-03-29T05:44:11.490Z,102941.53
2019-03-29T05:46:39.954Z,102943.94
2019-03-29T05:49:08.411Z,102944.36
2019-03-29T05:51:36.885Z,102946.80
2019-03-29T05:54:05.325Z,102950.41
2019-03-29T05:56:33.781Z,102950.48
2019-03-29T05:59:02.270Z,102946.70
2019-03-29T06:01:30.736Z,102955.20
2019-03-29T06:03:59.198Z,102945.54
2019-03-29T06:06:27.665Z,102945.00
2019-03-29T06:08:56.100Z,102945.13
2019-03-29T06:11:25.681Z,102941.27
2019-03-29T06:13:54.171Z,102944.92
2019-03-29T06:16:22.617Z,102944.39
2019-03-29T06:18:52.231Z,102940.82
2019-03-29T06:21:20.695Z,102938.06
2019-03-29T06:23:49.151Z,102940.73
2019-03-29T06:26:17.615Z,102935.70
2019-03-29T06:28:46.105Z,102940.09
2019-03-29T06:31:14.612Z,102937.41
2019-03-29T06:33:44.537Z,102943.50
2019-03-29T06:36:15.838Z,102938.55
2019-03-29T06:38:46.147Z,102933.43
2019-03-29T06:41:14.621Z,102934.93
2019-03-29T06:43:43.101Z,102936.44
2019-03-29T06:46:11.546Z,102929.77
2019-03-29T06:48:40.022Z,102931.15
2019-03-29T06:51:08.478Z,102931.15
2019-03-29T06:53:36.920Z,102926.93
2019-03-29T06:56:05.373Z,102928.53
2019-03-29T06:58:33.864Z,102928.50
2019-03-29T07:01:02.313Z,102931.42
2019-03-29T07:03:30.785Z,102930.61
2019-03-29T07:05:59.243Z,102923.95
2019-03-29T07:08:27.708Z,102933.27
2019-03-29T07:10:56.188Z,102930.20
2019-03-29T07:13:24.624Z,102933.55
2019-03-29T07:15:53.106Z,102935.37
2019-03-29T07:18:21.604Z,102939.14
2019-03-29T07:20:50.086Z,102942.95
2019-03-29T07:23:18.524Z,102944.75
2019-03-29T07:25:46.969Z,102950.58
2019-03-29T07:28:15.451Z,102942.27
2019-03-29T07:30:43.893Z,102947.80
2019-03-29T07:33:12.364Z,102947.80
2019-03-29T07:35:40.931Z,102945.09
2019-03-29T07:38:09.369Z,102946.24
2019-03-29T07:40:37.843Z,102948.86
2019-03-29T07:43:06.341Z,102949.78
2019-03-29T07:45:34.870Z,102949.61
2019-03-29T07:48:03.369Z,102950.47
2019-03-29T07:50:31.830Z,102953.91
2019-03-29T07:53:00.286Z,102947.59
2019-03-29T07:55:28.761Z,102948.80
2019-03-29T07:57:57.239Z,102947.10
2019-03-29T08:00:25.698Z,102950.71
2019-03-29T08:02:55.127Z,102940.70
2019-03-29T08:05:23.802Z,102937.50
2019-03-29T08:07:52.260Z,102938.10
2019-03-29T08:10:27.494Z,102931.81
2019-03-29T08:12:50.960Z,102929.38
2019-03-29T08:15:19.457Z,102930.08
2019-03-29T08:17:47.913Z,102922.65
2019-03-29T08:20:38.846Z,102922.42
2019-03-29T08:22:46.588Z,102929.53
2019-03-29T08:25:15.068Z,102927.25
2019-03-29T08:27:43.523Z,102927.13
2019-03-29T08:30:12.363Z,102924.52
2019-03-29T08:32:40.832Z,102928.64
2019-03-29T08:35:09.542Z,102925.34
2019-03-29T08:37:38.051Z,102928.20
2019-03-29T08:40:06.881Z,102928.34
2019-03-29T08:42:35.334Z,102930.23
2019-03-29T08:45:05.220Z,102935.17
2019-03-29T08:47:33.700Z,102933.14
2019-03-29T08:50:02.206Z,102934.72
2019-03-29T08:52:30.660Z,102935.66
2019-03-29T08:54:59.094Z,102934.59
2019-03-29T08:57:27.634Z,102928.86
2019-03-29T08:59:57.023Z,102930.98
2019-03-29T09:02:25.663Z,102937.50
2019-03-29T09:04:55.172Z,102931.84
2019-03-29T09:07:23.793Z,102926.17
2019-03-29T09:09:52.254Z,102925.39
2019-03-29T09:12:20.721Z,102922.05
2019-03-29T09:14:49.202Z,102922.16
2019-03-29T09:17:17.666Z,102919.41
2019-03-29T09:19:46.163Z,102924.39
2019-03-29T09:22:14.677Z,102917.03
2019-03-29T09:24:43.087Z,102926.41
2019-03-29T09:27:11.603Z,102920.20
2019-03-29T09:29:40.123Z,102926.28
2019-03-29T09:32:09.110Z,102922.88
2019-03-29T09:34:37.680Z,102927.00
2019-03-29T09:37:06.180Z,102917.10
2019-03-29T09:39:34.616Z,102926.21
2019-03-29T09:42:03.267Z,102931.59
2019-03-29T09:44:31.713Z,102929.47
2019-03-29T09:47:00.168Z,102928.37
2019-03-29T09:49:28.621Z,102924.53
2019-03-29T09:51:57.065Z,102924.07
2019-03-29T09:54:25.529Z,102919.04
2019-03-29T09:56:53.990Z,102915.95
2019-03-29T09:59:23.275Z,102912.75
2019-03-29T10:01:53.961Z,102913.02
2019-03-29T10:04:22.070Z,102912.78
2019-03-29T10:06:50.577Z,102905.91
2019-03-29T10:09:19.044Z,102902.88
2019-03-29T10:11:47.483Z,102910.11
2019-03-29T10:14:15.951Z,102905.83
2019-03-29T10:16:44.422Z,102908.73
2019-03-29T10:19:12.904Z,102901.66
2019-03-29T10:21:41.370Z,102906.23
2019-03-29T10:24:09.820Z,102900.73
2019-03-29T10:26:38.302Z,102902.34
2019-03-29T10:29:06.797Z,102904.58
2019-03-29T10:31:35.228Z,102903.75
2019-03-29T10:34:03.689Z,102902.11
2019-03-29T10:36:32.174Z,102893.70
2019-03-29T10:39:00.635Z,102889.89
2019-03-29T10:41:29.112Z,102888.38
2019-03-29T10:43:57.616Z,102878.72
2019-03-29T10:46:26.134Z,102876.94
2019-03-29T10:48:54.665Z,102873.21
2019-03-29T10:51:23.142Z,102869.25
2019-03-29T10:53:51.605Z,102864.82
2019-03-29T10:56:33.464Z,102862.70
2019-03-29T10:58:50.279Z,102861.08
2019-03-29T11:01:18.722Z,102856.19
2019-03-29T11:03:47.209Z,102859.06
2019-03-29T11:06:15.747Z,102857.17
2019-03-29T11:08:44.193Z,102861.34
2019-03-29T11:11:12.652Z,102853.82
2019-03-29T11:13:41.436Z,102852.01
2019-03-29T11:16:09.883Z,102853.80
2019-03-29T11:18:38.386Z,102831.23
2019-03-29T11:21:07.087Z,102840.55
2019-03-29T11:23:35.529Z,102831.66
2019-03-29T11:26:03.966Z,102833.70
2019-03-29T11:28:32.429Z,102825.78
2019-03-29T11:31:00.864Z,102825.38
2019-03-29T11:33:29.347Z,102824.69
2019-03-29T11:35:57.770Z,102826.95
2019-03-29T11:38:26.218Z,102824.02
2019-03-29T11:40:54.683Z,102817.87
2019-03-29T11:43:27.043Z,102818.09
2019-03-29T11:45:53.309Z,102810.84
2019-03-29T11:48:21.768Z,102812.79
2019-03-29T11:50:50.222Z,102812.95
2019-03-29T11:53:18.733Z,102811.66
2019-03-29T11:55:47.207Z,102811.16
2019-03-29T11:58:15.655Z,102811.47
2019-03-29T12:00:44.391Z,102808.55
2019-03-29T12:03:12.925Z,102798.72
2019-03-29T12:05:41.362Z,102796.81
2019-03-29T12:08:09.831Z,102792.41
2019-03-29T12:10:38.313Z,102796.36
2019-03-29T12:13:08.217Z,102788.47
2019-03-29T12:15:36.827Z,102793.77
2019-03-29T12:18:05.339Z,102787.79
2019-03-29T12:20:33.809Z,102785.51
2019-03-29T12:23:02.314Z,102777.81
2019-03-29T12:25:30.808Z,102773.39
2019-03-29T12:27:59.234Z,102768.97
2019-03-29T12:30:31.904Z,102758.42
2019-03-29T12:32:57.884Z,102766.67
2019-03-29T12:35:26.367Z,102762.64
2019-03-29T12:37:54.820Z,102762.84
2019-03-29T12:40:23.252Z,102757.85
2019-03-29T12:42:51.706Z,102763.52
2019-03-29T12:45:20.183Z,102754.63
2019-03-29T12:47:49.358Z,102754.30
2019-03-29T12:50:17.834Z,102747.93
2019-03-29T12:52:46.264Z,102746.64
2019-03-29T12:55:15.140Z,102746.73
2019-03-29T12:57:43.613Z,102736.85
2019-03-29T13:00:13.043Z,102728.83
2019-03-29T13:02:41.478Z,102728.70
2019-03-29T13:05:10.132Z,102730.10
2019-03-29T13:07:38.567Z,102725.44
2019-03-29T13:10:08.650Z,102719.79
2019-03-29T13:12:37.119Z,102717.95
2019-03-29T13:15:08.909Z,102714.70
2019-03-29T13:17:38.010Z,102713.16
2019-03-29T13:20:06.960Z,102712.78
2019-03-29T13:22:35.426Z,102703.39
2019-03-29T13:25:07.311Z,102709.74
2019-03-29T13:27:35.073Z,102702.65
2019-03-29T13:30:04.309Z,102702.22
2019-03-29T13:32:33.509Z,102704.23
2019-03-29T13:35:02.201Z,102696.77
2019-03-29T13:37:30.660Z,102694.05
2019-03-29T13:39:59.116Z,102693.50
2019-03-29T13:42:27.574Z,102688.78
2019-03-29T13:44:56.090Z,102691.44
2019-03-29T13:47:24.512Z,102687.28
2019-03-29T13:49:52.983Z,102678.73
2019-03-29T13:52:21.459Z,102675.89
2019-03-29T13:54:49.929Z,102670.66
2019-03-29T13:57:18.406Z,102670.98
2019-03-29T13:59:46.875Z,102663.89
2019-03-29T14:02:15.308Z,102661.69
2019-03-29T14:04:43.748Z,102662.02
2019-03-29T14:07:12.199Z,102660.23
2019-03-29T14:09:40.703Z,102659.22
2019-03-29T14:12:09.132Z,102656.19
2019-03-29T14:14:38.827Z,102660.53
2019-03-29T14:17:07.444Z,102657.41
2019-03-29T14:19:35.918Z,102647.92
2019-03-29T14:22:04.360Z,102646.99
2019-03-29T14:24:32.826Z,102642.74
2019-03-29T14:27:01.291Z,102636.63
2019-03-29T14:29:29.743Z,102631.50
2019-03-29T14:31:58.215Z,102616.03
2019-03-29T14:34:26.657Z,102620.64
2019-03-29T14:36:55.123Z,102616.03
2019-03-29T14:39:23.568Z,102611.03
2019-03-29T14:41:52.005Z,102615.12
2019-03-29T14:44:20.477Z,102610.81
2019-03-29T14:46:48.914Z,102603.41
2019-03-29T14:49:17.413Z,102602.61
2019-03-29T14:51:45.871Z,102596.30
2019-03-29T14:54:14.317Z,102595.23
2019-03-29T14:56:42.791Z,102590.89
2019-03-29T14:59:11.250Z,102590.30
2019-03-29T15:01:39.693Z,102591.30
2019-03-29T15:04:08.292Z,102588.45
2019-03-29T15:06:36.757Z,102581.91
2019-03-29T15:09:07.041Z,102580.83
2019-03-29T15:11:35.545Z,102579.59
2019-03-29T15:14:04.008Z,102577.04
2019-03-29T15:16:32.457Z,102571.48
2019-03-29T15:19:00.921Z,102569.50
2019-03-29T15:21:29.368Z,102563.66
2019-03-29T15:23:57.820Z,102563.83
2019-03-29T15:26:26.279Z,102559.80
2019-03-29T15:28:54.760Z,102548.86
2019-03-29T15:31:23.249Z,102550.00
2019-03-29T15:33:51.739Z,102549.47
2019-03-29T15:36:20.201Z,102545.34
2019-03-29T15:38:48.661Z,102546.66
2019-03-29T15:41:17.154Z,102547.63
2019-03-29T15:43:45.635Z,102544.73
2019-03-29T15:46:14.117Z,102539.00
2019-03-29T15:48:42.582Z,102539.33
2019-03-29T15:51:11.113Z,102530.75
2019-03-29T15:53:39.563Z,102530.85
2019-03-29T15:56:08.019Z,102536.78
2019-03-29T15:58:36.497Z,102530.16
2019-03-29T16:01:05.019Z,102531.72
2019-03-29T16:03:33.475Z,102531.72
2019-03-29T16:06:01.943Z,102531.97
2019-03-29T16:08:30.398Z,102527.08
2019-03-29T16:10:58.858Z,102523.04
2019-03-29T16:13:27.330Z,102522.13
2019-03-29T16:15:55.785Z,102522.59
2019-03-29T16:18:24.218Z,102525.07
2019-03-29T16:20:52.719Z,102516.62
2019-03-29T16:23:21.174Z,102517.93
2019-03-29T16:25:49.662Z,102517.80
2019-03-29T16:28:18.111Z,102516.12
2019-03-29T16:30:46.592Z,102511.31
2019-03-29T16:33:15.096Z,102507.02
2019-03-29T16:35:43.555Z,102510.80
2019-03-29T16:38:12.033Z,102507.07
2019-03-29T16:40:40.517Z,102508.33
2019-03-29T16:43:08.987Z,102508.18
2019-03-29T16:45:47.278Z,102507.53
2019-03-29T16:48:07.606Z,102502.96
2019-03-29T16:50:36.096Z,102497.73
2019-03-29T16:53:04.594Z,102501.67
2019-03-29T16:55:33.115Z,102500.67
2019-03-29T16:58:01.591Z,102488.45
2019-03-29T17:00:30.042Z,102496.78
2019-03-29T17:02:58.533Z,102486.52
2019-03-29T17:05:27.000Z,102488.38
2019-03-29T17:07:55.560Z,102494.58
2019-03-29T17:10:24.005Z,102496.11
2019-03-29T17:12:52.519Z,102492.80
2019-03-29T17:15:21.037Z,102493.25
2019-03-29T17:17:49.496Z,102496.12
2019-03-29T17:20:17.977Z,102498.98
2019-03-29T17:22:46.468Z,102490.83
2019-03-29T17:25:14.924Z,102496.67
2019-03-29T17:27:43.389Z,102489.36
2019-03-29T17:30:13.920Z,102495.95
2019-03-29T17:32:42.394Z,102500.99
2019-03-29T17:35:10.845Z,102497.56
2019-03-29T17:37:39.294Z,102493.52
2019-03-29T17:40:08.802Z,102493.83
2019-03-29T17:42:37.246Z,102487.48
2019-03-29T17:45:08.964Z,102492.51
2019-03-29T17:47:37.608Z,102486.63
2019-03-29T17:50:06.827Z,102484.09
2019-03-29T17:52:35.309Z,102489.33
2019-03-29T17:55:05.013Z,102481.52
2019-03-29T17:57:33.489Z,102481.58
2019-03-29T18:00:01.944Z,102481.23
2019-03-29T18:02:30.391Z,102486.19
2019-03-29T18:04:58.879Z,102484.41
2019-03-29T18:07:27.382Z,102489.41
2019-03-29T18:09:55.853Z,102488.26
2019-03-29T18:12:24.314Z,102489.12
2019-03-29T18:14:52.782Z,102484.95
2019-03-29T18:17:21.273Z,102489.72
2019-03-29T18:19:49.716Z,102484.53
2019-03-29T18:22:18.204Z,102486.61
2019-03-29T18:24:46.681Z,102482.86
2019-03-29T18:27:15.126Z,102479.77
2019-03-29T18:29:43.584Z,102476.30
2019-03-29T18:32:12.218Z,102474.12
2019-03-29T18:34:41.699Z,102473.08
2019-03-29T18:37:10.970Z,102478.27
2019-03-29T18:39:39.601Z,102472.77
2019-03-29T18:42:08.061Z,102473.40
2019-03-29T18:44:36.556Z,102468.34
2019-03-29T18:47:05.038Z,102470.79
2019-03-29T18:49:33.490Z,102470.09
2019-03-29T18:52:01.962Z,102468.62
2019-03-29T18:54:30.418Z,102467.22
2019-03-29T18:56:58.943Z,102470.04
2019-03-29T18:59:27.394Z,102469.05
2019-03-29T19:01:55.860Z,102471.65
2019-03-29T19:04:24.325Z,102469.53
2019-03-29T19:06:52.795Z,102475.75
2019-03-29T19:09:21.271Z,102475.81
2019-03-29T19:11:49.719Z,102470.74
2019-03-29T19:14:18.196Z,102470.80
2019-03-29T19:16:58.287Z,102467.83
2019-03-29T19:19:16.823Z,102472.03
2019-03-29T19:21:45.321Z,102468.74
2019-03-29T19:24:13.799Z,102473.87
2019-03-29T19:26:42.250Z,102470.15
2019-03-29T19:29:10.714Z,102470.40
2019-03-29T19:31:39.189Z,102464.48
2019-03-29T19:34:07.633Z,102471.70
2019-03-29T19:36:36.084Z,102469.53
2019-03-29T19:39:06.605Z,102462.52
2019-03-29T19:41:35.043Z,102460.16
2019-03-29T19:44:03.526Z,102455.13
2019-03-29T19:46:32.005Z,102455.56
2019-03-29T19:49:00.455Z,102448.87
2019-03-29T19:51:28.908Z,102448.87
2019-03-29T19:54:07.150Z,102447.76
2019-03-29T19:56:27.591Z,102440.67
2019-03-29T19:58:56.037Z,102440.67
2019-03-29T20:01:24.475Z,102440.37
2019-03-29T20:03:52.976Z,102439.49
2019-03-29T20:06:21.405Z,102439.49
2019-03-29T20:08:49.861Z,102428.41
2019-03-29T20:11:18.336Z,102428.41
2019-03-29T20:13:46.806Z,102440.72
2019-03-29T20:16:15.323Z,102425.63
2019-03-29T20:18:43.775Z,102433.41
2019-03-29T20:21:12.247Z,102427.92
2019-03-29T20:23:40.708Z,102430.81
2019-03-29T20:26:09.257Z,102430.22
2019-03-29T20:28:37.754Z,102430.22
2019-03-29T20:31:06.202Z,102437.94
2019-03-29T20:33:34.689Z,102434.22
2019-03-29T20:36:03.179Z,102432.33
2019-03-29T20:38:31.636Z,102432.24
2019-03-29T20:41:00.113Z,102436.21
2019-03-29T20:43:28.564Z,102433.83
2019-03-29T20:45:57.010Z,102424.64
2019-03-29T20:48:25.464Z,102425.63
2019-03-29T20:50:53.914Z,102424.23
2019-03-29T20:53:22.377Z,102424.63
2019-03-29T20:55:50.815Z,102419.95
2019-03-29T20:58:19.255Z,102415.25
2019-03-29T21:00:47.749Z,102419.44
2019-03-29T21:03:16.199Z,102413.86
2019-03-29T21:05:44.667Z,102420.25
2019-03-29T21:08:13.117Z,102419.52
2019-03-29T21:10:54.972Z,102418.45
2019-03-29T21:13:11.763Z,102415.94
2019-03-29T21:15:40.188Z,102423.91
2019-03-29T21:18:08.656Z,102412.53
2019-03-29T21:20:37.150Z,102414.80
2019-03-29T21:23:05.579Z,102413.37
2019-03-29T21:25:34.018Z,102405.52
2019-03-29T21:28:02.782Z,102407.41
2019-03-29T21:30:31.241Z,102413.98
2019-03-29T21:32:59.692Z,102411.39
2019-03-29T21:35:28.148Z,102410.39
2019-03-29T21:37:56.637Z,102404.00
2019-03-29T21:40:25.075Z,102404.45
2019-03-29T21:42:53.536Z,102405.58
2019-03-29T21:45:28.409Z,102404.58
2019-03-29T21:48:04.725Z,102401.36
2019-03-29T21:50:22.373Z,102401.36
2019-03-29T21:52:50.879Z,102394.97
2019-03-29T21:55:19.325Z,102395.97
2019-03-29T21:57:47.792Z,102400.92
2019-03-29T22:00:16.996Z,102400.92
2019-03-29T22:02:45.435Z,102396.66
2019-03-29T22:05:14.757Z,102384.94
2019-03-29T22:07:43.197Z,102393.84
2019-03-29T22:10:11.912Z,102395.92
2019-03-29T22:12:43.036Z,102393.44
2019-03-29T22:15:11.490Z,102386.91
2019-03-29T22:17:39.930Z,102386.91
2019-03-29T22:20:09.435Z,102389.81
2019-03-29T22:22:37.972Z,102378.45
2019-03-29T22:25:08.089Z,102379.63
2019-03-29T22:27:36.539Z,102381.12
2019-03-29T22:30:08.301Z,102382.47
2019-03-29T22:32:36.778Z,102377.72
2019-03-29T22:35:07.623Z,102364.22
2019-03-29T22:37:36.087Z,102371.47
2019-03-29T22:40:07.071Z,102361.07
2019-03-29T22:42:35.551Z,102367.05
2019-03-29T22:45:05.455Z,102361.76
2019-03-29T22:47:33.911Z,102364.14
2019-03-29T22:50:02.407Z,102363.09
2019-03-29T22:52:30.850Z,102363.09
2019-03-29T22:54:59.323Z,102348.93
2019-03-29T22:57:27.755Z,102348.09
2019-03-29T22:59:56.204Z,102348.09
2019-03-29T23:02:24.913Z,102352.45
2019-03-29T23:04:53.354Z,102350.35
2019-03-29T23:07:21.808Z,102347.20
2019-03-29T23:09:50.264Z,102347.93
2019-03-29T23:12:18.724Z,102343.64
2019-03-29T23:14:47.178Z,102355.09
2019-03-29T23:17:15.632Z,102345.27
2019-03-29T23:19:44.084Z,102346.27
2019-03-29T23:22:12.519Z,102347.52
2019-03-29T23:24:40.984Z,102339.58
2019-03-29T23:27:09.421Z,102341.20
2019-03-29T23:29:37.933Z,102339.06
2019-03-29T23:32:06.386Z,102341.19
2019-03-29T23:34:34.830Z,102337.10
2019-03-29T23:37:03.280Z,102328.30
2019-03-29T23:39:31.750Z,102325.91
2019-03-29T23:42:00.197Z,102329.77
2019-03-29T23:44:28.710Z,102323.45
2019-03-29T23:46:57.185Z,102320.63
2019-03-29T23:49:25.627Z,102321.45
2019-03-29T23:51:54.108Z,102313.55
2019-03-29T23:54:22.546Z,102313.02
2019-03-29T23:56:50.989Z,102308.52
2019-03-29T23:59:19.465Z,102301.59
